sensor_id;sensor_type;location;lat;lon;timestamp;pressure;altitude;pressure_sealevel;temperature;humidity
23473;BME280;11909;52.516;13.564;2022-10-18T00:01:27;101788.13;;;14.62;100.00
23473;BME280;11909;52.516;13.564;2022-10-18T00:03:54;101785.63;;;14.60;100.00
23473;BME280;11909;52.516;13.564;2022-10-18T00:06:20;101786.19;;;14.62;100.00
23473;BME280;11909;52.516;13.564;2022-10-18T00:08:47;101787.00;;;14.63;100.00
23473;BME280;11909;52.516;13.564;2022-10-18T00:11:13;101785.63;;;14.66;100.00
23473;BME280;11909;52.516;13.564;2022-10-18T00:13:41;101787.28;;;14.67;100.00
23473;BME280;11909;52.516;13.564;2022-10-18T00:16:10;101792.25;;;14.70;100.00
23473;BME280;11909;52.516;13.564;2022-10-18T00:18:37;101789.75;;;14.68;100.00
23473;BME280;11909;52.516;13.564;2022-10-18T00:21:06;101791.16;;;14.71;100.00
23473;BME280;11909;52.516;13.564;2022-10-18T00:23:34;101801.34;;;14.70;100.00
23473;BME280;11909;52.516;13.564;2022-10-18T00:26:03;101798.88;;;14.69;100.00
23473;BME280;11909;52.516;13.564;2022-10-18T00:28:30;101794.47;;;14.68;100.00
23473;BME280;11909;52.516;13.564;2022-10-18T00:31:08;101806.31;;;14.68;100.00
23473;BME280;11909;52.516;13.564;2022-10-18T00:33:35;101808.28;;;14.68;100.00
23473;BME280;11909;52.516;13.564;2022-10-18T00:36:01;101808.56;;;14.66;100.00
23473;BME280;11909;52.516;13.564;2022-10-18T00:38:27;101811.59;;;14.65;100.00
23473;BME280;11909;52.516;13.564;2022-10-18T00:40:54;101803.59;;;14.63;100.00
23473;BME280;11909;52.516;13.564;2022-10-18T00:43:20;101816.28;;;14.64;100.00
23473;BME280;11909;52.516;13.564;2022-10-18T00:45:47;101809.13;;;14.63;100.00
23473;BME280;11909;52.516;13.564;2022-10-18T00:48:16;101808.28;;;14.62;100.00
23473;BME280;11909;52.516;13.564;2022-10-18T00:50:43;101808.56;;;14.66;100.00
23473;BME280;11909;52.516;13.564;2022-10-18T00:53:14;101814.63;;;14.68;100.00
23473;BME280;11909;52.516;13.564;2022-10-18T00:55:41;101808.56;;;14.66;100.00
23473;BME280;11909;52.516;13.564;2022-10-18T00:58:08;101810.75;;;14.69;100.00
23473;BME280;11909;52.516;13.564;2022-10-18T01:00:36;101802.72;;;14.78;100.00
23473;BME280;11909;52.516;13.564;2022-10-18T01:03:05;101801.59;;;14.89;100.00
23473;BME280;11909;52.516;13.564;2022-10-18T01:05:41;101799.53;;;15.11;100.00
23473;BME280;11909;52.516;13.564;2022-10-18T01:08:27;101805.25;;;15.25;100.00
23473;BME280;11909;52.516;13.564;2022-10-18T01:11:04;101805.16;;;15.40;100.00
23473;BME280;11909;52.516;13.564;2022-10-18T01:13:48;101800.31;;;15.56;100.00
23473;BME280;11909;52.516;13.564;2022-10-18T01:16:31;101801.84;;;15.73;100.00
23473;BME280;11909;52.516;13.564;2022-10-18T01:19:03;101792.91;;;15.81;100.00
23473;BME280;11909;52.516;13.564;2022-10-18T01:21:40;101798.97;;;15.88;100.00
23473;BME280;11909;52.516;13.564;2022-10-18T01:24:33;101808.59;;;15.96;100.00
23473;BME280;11909;52.516;13.564;2022-10-18T01:27:30;101807.38;;;16.08;100.00
23473;BME280;11909;52.516;13.564;2022-10-18T01:30:21;101806.81;;;16.11;100.00
23473;BME280;11909;52.516;13.564;2022-10-18T01:32:56;101795.13;;;16.14;100.00
23473;BME280;11909;52.516;13.564;2022-10-18T01:35:32;101799.56;;;16.15;100.00
23473;BME280;11909;52.516;13.564;2022-10-18T01:38:04;101790.72;;;16.13;100.00
23473;BME280;11909;52.516;13.564;2022-10-18T01:40:34;101780.44;;;16.13;100.00
23473;BME280;11909;52.516;13.564;2022-10-18T01:43:02;101791.53;;;16.13;100.00
23473;BME280;11909;52.516;13.564;2022-10-18T01:45:31;101786.00;;;16.13;100.00
23473;BME280;11909;52.516;13.564;2022-10-18T01:47:59;101790.41;;;16.14;100.00
23473;BME280;11909;52.516;13.564;2022-10-18T01:50:31;101785.44;;;16.16;100.00
23473;BME280;11909;52.516;13.564;2022-10-18T01:52:58;101783.19;;;16.18;100.00
23473;BME280;11909;52.516;13.564;2022-10-18T01:55:29;101793.75;;;16.16;100.00
23473;BME280;11909;52.516;13.564;2022-10-18T01:58:02;101801.22;;;16.16;100.00
23473;BME280;11909;52.516;13.564;2022-10-18T02:00:37;101803.44;;;16.14;100.00
23473;BME280;11909;52.516;13.564;2022-10-18T02:03:10;101800.94;;;16.17;100.00
23473;BME280;11909;52.516;13.564;2022-10-18T02:05:45;101799.84;;;16.13;100.00
23473;BME280;11909;52.516;13.564;2022-10-18T02:08:17;101791.25;;;16.15;100.00
23473;BME280;11909;52.516;13.564;2022-10-18T02:10:52;101795.13;;;16.14;100.00
23473;BME280;11909;52.516;13.564;2022-10-18T02:13:21;101784.34;;;16.12;100.00
23473;BME280;11909;52.516;13.564;2022-10-18T02:15:53;101790.19;;;16.11;100.00
23473;BME280;11909;52.516;13.564;2022-10-18T02:18:24;101778.81;;;16.12;100.00
23473;BME280;11909;52.516;13.564;2022-10-18T02:20:53;101789.34;;;16.10;100.00
23473;BME280;11909;52.516;13.564;2022-10-18T02:23:22;101792.66;;;16.12;100.00
23473;BME280;11909;52.516;13.564;2022-10-18T02:25:51;101791.84;;;16.12;100.00
23473;BME280;11909;52.516;13.564;2022-10-18T02:28:18;101795.41;;;16.12;100.00
23473;BME280;11909;52.516;13.564;2022-10-18T02:30:52;101798.19;;;16.12;100.00
23473;BME280;11909;52.516;13.564;2022-10-18T02:33:27;101801.47;;;16.14;100.00
23473;BME280;11909;52.516;13.564;2022-10-18T02:36:01;101800.94;;;16.12;100.00
23473;BME280;11909;52.516;13.564;2022-10-18T02:38:29;101800.16;;;16.12;100.00
23473;BME280;11909;52.516;13.564;2022-10-18T02:40:57;101802.06;;;16.11;100.00
23473;BME280;11909;52.516;13.564;2022-10-18T02:43:24;101808.44;;;16.12;100.00
23473;BME280;11909;52.516;13.564;2022-10-18T02:45:52;101804.84;;;16.11;100.00
23473;BME280;11909;52.516;13.564;2022-10-18T02:48:18;101806.28;;;16.09;100.00
23473;BME280;11909;52.516;13.564;2022-10-18T02:50:45;101812.88;;;16.13;100.00
23473;BME280;11909;52.516;13.564;2022-10-18T02:53:11;101813.16;;;16.11;100.00
23473;BME280;11909;52.516;13.564;2022-10-18T02:55:37;101812.03;;;16.12;100.00
23473;BME280;11909;52.516;13.564;2022-10-18T02:58:04;101816.44;;;16.13;100.00
23473;BME280;11909;52.516;13.564;2022-10-18T03:00:30;101820.66;;;16.11;100.00
23473;BME280;11909;52.516;13.564;2022-10-18T03:02:58;101818.41;;;16.13;100.00
23473;BME280;11909;52.516;13.564;2022-10-18T03:05:25;101815.38;;;16.09;100.00
23473;BME280;11909;52.516;13.564;2022-10-18T03:07:51;101821.25;;;16.08;100.00
23473;BME280;11909;52.516;13.564;2022-10-18T03:10:18;101818.16;;;16.09;100.00
23473;BME280;11909;52.516;13.564;2022-10-18T03:12:44;101816.50;;;16.08;100.00
23473;BME280;11909;52.516;13.564;2022-10-18T03:15:10;101820.94;;;16.09;100.00
23473;BME280;11909;52.516;13.564;2022-10-18T03:17:37;101823.69;;;16.09;100.00
23473;BME280;11909;52.516;13.564;2022-10-18T03:20:06;101823.69;;;16.09;100.00
23473;BME280;11909;52.516;13.564;2022-10-18T03:22:32;101832.84;;;16.10;100.00
23473;BME280;11909;52.516;13.564;2022-10-18T03:24:59;101841.16;;;16.10;100.00
23473;BME280;11909;52.516;13.564;2022-10-18T03:27:25;101855.53;;;16.12;100.00
23473;BME280;11909;52.516;13.564;2022-10-18T03:29:51;101866.28;;;16.18;100.00
23473;BME280;11909;52.516;13.564;2022-10-18T03:32:18;101860.44;;;16.20;100.00
23473;BME280;11909;52.516;13.564;2022-10-18T03:34:44;101864.94;;;16.11;100.00
23473;BME280;11909;52.516;13.564;2022-10-18T03:37:12;101835.88;;;16.08;100.00
23473;BME280;11909;52.516;13.564;2022-10-18T03:39:38;101837.59;;;16.04;100.00
23473;BME280;11909;52.516;13.564;2022-10-18T03:42:05;101834.56;;;16.00;100.00
23473;BME280;11909;52.516;13.564;2022-10-18T03:44:31;101830.47;;;15.98;100.00
23473;BME280;11909;52.516;13.564;2022-10-18T03:46:58;101823.28;;;15.97;100.00
23473;BME280;11909;52.516;13.564;2022-10-18T03:49:24;101820.50;;;15.97;100.00
23473;BME280;11909;52.516;13.564;2022-10-18T03:51:51;101815.56;;;15.94;100.00
23473;BME280;11909;52.516;13.564;2022-10-18T03:54:19;101823.31;;;15.91;100.00
23473;BME280;11909;52.516;13.564;2022-10-18T03:56:45;101826.66;;;15.88;100.00
23473;BME280;11909;52.516;13.564;2022-10-18T03:59:12;101837.16;;;15.86;100.00
23473;BME280;11909;52.516;13.564;2022-10-18T04:01:40;101838.00;;;15.87;100.00
23473;BME280;11909;52.516;13.564;2022-10-18T04:04:07;101841.56;;;15.87;100.00
23473;BME280;11909;52.516;13.564;2022-10-18T04:06:33;101832.22;;;15.83;100.00
23473;BME280;11909;52.516;13.564;2022-10-18T04:09:00;101832.50;;;15.82;100.00
23473;BME280;11909;52.516;13.564;2022-10-18T04:11:27;101831.66;;;15.81;100.00
23473;BME280;11909;52.516;13.564;2022-10-18T04:13:54;101832.78;;;15.80;100.00
23473;BME280;11909;52.516;13.564;2022-10-18T04:16:20;101835.84;;;15.78;100.00
23473;BME280;11909;52.516;13.564;2022-10-18T04:18:47;101836.41;;;15.75;100.00
23473;BME280;11909;52.516;13.564;2022-10-18T04:21:13;101844.44;;;15.77;100.00
23473;BME280;11909;52.516;13.564;2022-10-18T04:23:40;101841.41;;;15.73;100.00
23473;BME280;11909;52.516;13.564;2022-10-18T04:26:06;101836.47;;;15.70;100.00
23473;BME280;11909;52.516;13.564;2022-10-18T04:28:34;101840.63;;;15.68;100.00
23473;BME280;11909;52.516;13.564;2022-10-18T04:31:04;101827.38;;;15.65;100.00
23473;BME280;11909;52.516;13.564;2022-10-18T04:33:31;101839.84;;;15.62;100.00
23473;BME280;11909;52.516;13.564;2022-10-18T04:35:57;101837.09;;;15.62;100.00
23473;BME280;11909;52.516;13.564;2022-10-18T04:38:23;101838.78;;;15.58;100.00
23473;BME280;11909;52.516;13.564;2022-10-18T04:40:50;101842.63;;;15.57;100.00
23473;BME280;11909;52.516;13.564;2022-10-18T04:43:16;101845.41;;;15.57;100.00
23473;BME280;11909;52.516;13.564;2022-10-18T04:45:45;101849.28;;;15.56;100.00
23473;BME280;11909;52.516;13.564;2022-10-18T04:48:12;101845.97;;;15.54;100.00
23473;BME280;11909;52.516;13.564;2022-10-18T04:50:38;101845.44;;;15.52;100.00
23473;BME280;11909;52.516;13.564;2022-10-18T04:53:05;101837.72;;;15.48;100.00
23473;BME280;11909;52.516;13.564;2022-10-18T04:55:31;101840.50;;;15.48;100.00
23473;BME280;11909;52.516;13.564;2022-10-18T04:57:57;101836.06;;;15.47;100.00
23473;BME280;11909;52.516;13.564;2022-10-18T05:00:24;101837.47;;;15.45;100.00
23473;BME280;11909;52.516;13.564;2022-10-18T05:02:56;101832.78;;;15.45;100.00
23473;BME280;11909;52.516;13.564;2022-10-18T05:05:23;101834.47;;;15.41;100.00
23473;BME280;11909;52.516;13.564;2022-10-18T05:07:49;101842.50;;;15.38;100.00
23473;BME280;11909;52.516;13.564;2022-10-18T05:10:16;101836.16;;;15.37;100.00
23473;BME280;11909;52.516;13.564;2022-10-18T05:12:42;101840.31;;;15.34;100.00
23473;BME280;11909;52.516;13.564;2022-10-18T05:15:09;101835.88;;;15.33;100.00
23473;BME280;11909;52.516;13.564;2022-10-18T05:17:35;101828.16;;;15.30;100.00
23473;BME280;11909;52.516;13.564;2022-10-18T05:20:04;101822.38;;;15.27;100.00
23473;BME280;11909;52.516;13.564;2022-10-18T05:22:30;101827.94;;;15.22;100.00
23473;BME280;11909;52.516;13.564;2022-10-18T05:24:57;101842.34;;;15.18;100.00
23473;BME280;11909;52.516;13.564;2022-10-18T05:27:23;101842.38;;;15.13;100.00
23473;BME280;11909;52.516;13.564;2022-10-18T05:29:50;101832.69;;;15.11;100.00
23473;BME280;11909;52.516;13.564;2022-10-18T05:32:16;101836.59;;;15.10;100.00
23473;BME280;11909;52.516;13.564;2022-10-18T05:34:43;101836.03;;;15.08;100.00
23473;BME280;11909;52.516;13.564;2022-10-18T05:37:10;101834.41;;;15.01;100.00
23473;BME280;11909;52.516;13.564;2022-10-18T05:39:37;101835.81;;;14.99;100.00
23473;BME280;11909;52.516;13.564;2022-10-18T05:42:04;101834.16;;;14.98;100.00
23473;BME280;11909;52.516;13.564;2022-10-18T05:44:31;101831.97;;;14.95;100.00
23473;BME280;11909;52.516;13.564;2022-10-18T05:46:57;101838.88;;;14.92;100.00
23473;BME280;11909;52.516;13.564;2022-10-18T05:49:24;101833.63;;;14.90;100.00
23473;BME280;11909;52.516;13.564;2022-10-18T05:51:50;101833.91;;;14.89;100.00
23473;BME280;11909;52.516;13.564;2022-10-18T05:54:18;101831.16;;;14.89;100.00
23473;BME280;11909;52.516;13.564;2022-10-18T05:56:45;101824.81;;;14.88;100.00
23473;BME280;11909;52.516;13.564;2022-10-18T05:59:12;101829.22;;;14.89;100.00
23473;BME280;11909;52.516;13.564;2022-10-18T06:01:39;101826.72;;;14.88;100.00
23473;BME280;11909;52.516;13.564;2022-10-18T06:04:07;101845.81;;;14.89;100.00
23473;BME280;11909;52.516;13.564;2022-10-18T06:06:34;101852.72;;;14.87;100.00
23473;BME280;11909;52.516;13.564;2022-10-18T06:09:02;101848.31;;;14.86;100.00
23473;BME280;11909;52.516;13.564;2022-10-18T06:11:31;101851.09;;;14.81;100.00
23473;BME280;11909;52.516;13.564;2022-10-18T06:13:57;101853.00;;;14.80;100.00
23473;BME280;11909;52.516;13.564;2022-10-18T06:16:24;101846.94;;;14.78;100.00
23473;BME280;11909;52.516;13.564;2022-10-18T06:18:52;101837.81;;;14.83;100.00
23473;BME280;11909;52.516;13.564;2022-10-18T06:21:19;101841.69;;;14.82;100.00
23473;BME280;11909;52.516;13.564;2022-10-18T06:23:47;101827.88;;;14.82;100.00
23473;BME280;11909;52.516;13.564;2022-10-18T06:26:14;101833.41;;;14.82;100.00
23473;BME280;11909;52.516;13.564;2022-10-18T06:28:42;101825.66;;;14.84;100.00
23473;BME280;11909;52.516;13.564;2022-10-18T06:31:10;101837.25;;;14.86;100.00
23473;BME280;11909;52.516;13.564;2022-10-18T06:33:36;101824.00;;;14.83;100.00
23473;BME280;11909;52.516;13.564;2022-10-18T06:36:04;101827.88;;;14.82;100.00
23473;BME280;11909;52.516;13.564;2022-10-18T06:38:32;101825.94;;;14.77;100.00
23473;BME280;11909;52.516;13.564;2022-10-18T06:40:59;101827.06;;;14.76;100.00
23473;BME280;11909;52.516;13.564;2022-10-18T06:43:25;101832.31;;;14.77;100.00
23473;BME280;11909;52.516;13.564;2022-10-18T06:45:54;101827.91;;;14.76;100.00
23473;BME280;11909;52.516;13.564;2022-10-18T06:48:20;101818.50;;;14.77;100.00
23473;BME280;11909;52.516;13.564;2022-10-18T06:50:51;101817.38;;;14.79;100.00
23473;BME280;11909;52.516;13.564;2022-10-18T06:53:18;101829.81;;;14.76;100.00
23473;BME280;11909;52.516;13.564;2022-10-18T06:55:44;101834.25;;;14.77;100.00
23473;BME280;11909;52.516;13.564;2022-10-18T06:58:11;101834.25;;;14.77;100.00
23473;BME280;11909;52.516;13.564;2022-10-18T07:00:38;101837.84;;;14.77;100.00
23473;BME280;11909;52.516;13.564;2022-10-18T07:03:05;101846.38;;;14.81;100.00
23473;BME280;11909;52.516;13.564;2022-10-18T07:05:32;101840.31;;;14.79;100.00
23473;BME280;11909;52.516;13.564;2022-10-18T07:07:58;101837.50;;;14.84;100.00
23473;BME280;11909;52.516;13.564;2022-10-18T07:10:25;101838.63;;;14.88;100.00
23473;BME280;11909;52.516;13.564;2022-10-18T07:12:52;101839.72;;;14.87;100.00
23473;BME280;11909;52.516;13.564;2022-10-18T07:15:18;101838.63;;;14.88;100.00
23473;BME280;11909;52.516;13.564;2022-10-18T07:17:48;101848.00;;;14.87;100.00
23473;BME280;11909;52.516;13.564;2022-10-18T07:20:16;101853.53;;;14.87;100.00
23473;BME280;11909;52.516;13.564;2022-10-18T07:22:42;101854.38;;;14.88;100.00
23473;BME280;11909;52.516;13.564;2022-10-18T07:25:09;101869.84;;;14.89;100.00
23473;BME280;11909;52.516;13.564;2022-10-18T07:27:35;101866.81;;;14.90;100.00
23473;BME280;11909;52.516;13.564;2022-10-18T07:30:03;101886.41;;;14.94;100.00
23473;BME280;11909;52.516;13.564;2022-10-18T07:32:30;101875.88;;;14.96;100.00
23473;BME280;11909;52.516;13.564;2022-10-18T07:34:56;101880.59;;;14.96;100.00
23473;BME280;11909;52.516;13.564;2022-10-18T07:37:24;101884.19;;;15.01;100.00
23473;BME280;11909;52.516;13.564;2022-10-18T07:39:50;101894.94;;;15.03;100.00
23473;BME280;11909;52.516;13.564;2022-10-18T07:42:17;101897.97;;;15.07;100.00
23473;BME280;11909;52.516;13.564;2022-10-18T07:44:43;101897.44;;;15.04;100.00
23473;BME280;11909;52.516;13.564;2022-10-18T07:47:10;101898.53;;;15.03;100.00
23473;BME280;11909;52.516;13.564;2022-10-18T07:49:36;101897.47;;;14.99;100.00
23473;BME280;11909;52.516;13.564;2022-10-18T07:52:03;101902.97;;;15.04;100.00
23473;BME280;11909;52.516;13.564;2022-10-18T07:54:31;101907.66;;;15.04;100.00
23473;BME280;11909;52.516;13.564;2022-10-18T07:56:57;101898.25;;;15.05;100.00
23473;BME280;11909;52.516;13.564;2022-10-18T07:59:24;101904.88;;;15.04;100.00
23473;BME280;11909;52.516;13.564;2022-10-18T08:01:50;101895.75;;;15.09;100.00
23473;BME280;11909;52.516;13.564;2022-10-18T08:04:17;101897.66;;;15.08;100.00
23473;BME280;11909;52.516;13.564;2022-10-18T08:06:43;101903.75;;;15.10;100.00
23473;BME280;11909;52.516;13.564;2022-10-18T08:09:09;101897.66;;;15.08;100.00
23473;BME280;11909;52.516;13.564;2022-10-18T08:11:37;101897.66;;;15.08;100.00
23473;BME280;11909;52.516;13.564;2022-10-18T08:14:04;101892.97;;;15.09;100.00
23473;BME280;11909;52.516;13.564;2022-10-18T08:16:30;101889.09;;;15.10;100.00
23473;BME280;11909;52.516;13.564;2022-10-18T08:18:57;101892.97;;;15.09;100.00
23473;BME280;11909;52.516;13.564;2022-10-18T08:21:24;101883.84;;;15.08;100.00
23473;BME280;11909;52.516;13.564;2022-10-18T08:23:51;101883.03;;;15.08;100.00
23473;BME280;11909;52.516;13.564;2022-10-18T08:26:20;101878.84;;;15.10;100.00
23473;BME280;11909;52.516;13.564;2022-10-18T08:28:48;101871.69;;;15.09;100.00
23473;BME280;11909;52.516;13.564;2022-10-18T08:31:17;101875.28;;;15.10;100.00
23473;BME280;11909;52.516;13.564;2022-10-18T08:33:44;101868.38;;;15.07;100.00
23473;BME280;11909;52.516;13.564;2022-10-18T08:36:12;101867.28;;;15.03;100.00
23473;BME280;11909;52.516;13.564;2022-10-18T08:38:40;101872.56;;;15.04;100.00
23473;BME280;11909;52.516;13.564;2022-10-18T08:41:20;101872.25;;;15.06;100.00
23473;BME280;11909;52.516;13.564;2022-10-18T08:43:56;101878.31;;;15.08;100.00
23473;BME280;11909;52.516;13.564;2022-10-18T08:46:24;101881.09;;;15.08;100.00
23473;BME280;11909;52.516;13.564;2022-10-18T08:48:53;101880.78;;;15.15;100.00
23473;BME280;11909;52.516;13.564;2022-10-18T08:51:26;101879.44;;;15.12;100.00
23473;BME280;11909;52.516;13.564;2022-10-18T08:53:55;101879.69;;;15.11;100.00
23473;BME280;11909;52.516;13.564;2022-10-18T08:56:25;101881.66;;;15.05;100.00
23473;BME280;11909;52.516;13.564;2022-10-18T08:58:53;101874.78;;;15.02;100.00
23473;BME280;11909;52.516;13.564;2022-10-18T09:01:26;101875.31;;;15.04;100.00
23473;BME280;11909;52.516;13.564;2022-10-18T09:04:09;101876.97;;;15.05;100.00
23473;BME280;11909;52.516;13.564;2022-10-18T09:06:43;101868.94;;;15.04;100.00
23473;BME280;11909;52.516;13.564;2022-10-18T09:09:24;101868.94;;;15.04;100.00
23473;BME280;11909;52.516;13.564;2022-10-18T09:12:02;101876.66;;;15.12;100.00
23473;BME280;11909;52.516;13.564;2022-10-18T09:14:44;101880.28;;;15.08;100.00
23473;BME280;11909;52.516;13.564;2022-10-18T09:17:25;101878.66;;;15.01;100.00
23473;BME280;11909;52.516;13.564;2022-10-18T09:20:10;101884.41;;;15.05;100.00
23473;BME280;11909;52.516;13.564;2022-10-18T09:22:52;101889.72;;;15.01;100.00
23473;BME280;11909;52.516;13.564;2022-10-18T09:25:21;101884.72;;;14.98;100.00
23473;BME280;11909;52.516;13.564;2022-10-18T09:27:54;101895.53;;;14.95;100.00
23473;BME280;11909;52.516;13.564;2022-10-18T09:30:40;101887.50;;;14.93;100.00
23473;BME280;11909;52.516;13.564;2022-10-18T09:33:19;101885.31;;;14.90;100.00
23473;BME280;11909;52.516;13.564;2022-10-18T09:35:51;101890.03;;;14.89;100.00
23473;BME280;11909;52.516;13.564;2022-10-18T09:38:23;101879.78;;;14.90;100.00
23473;BME280;11909;52.516;13.564;2022-10-18T09:40:54;101875.91;;;14.91;100.00
23473;BME280;11909;52.516;13.564;2022-10-18T09:43:22;101874.81;;;14.87;100.00
23473;BME280;11909;52.516;13.564;2022-10-18T09:45:53;101883.13;;;14.82;100.00
23473;BME280;11909;52.516;13.564;2022-10-18T09:48:24;101887.25;;;14.84;100.00
23473;BME280;11909;52.516;13.564;2022-10-18T09:50:56;101884.53;;;14.79;100.00
23473;BME280;11909;52.516;13.564;2022-10-18T09:53:31;101881.50;;;14.81;100.00
23473;BME280;11909;52.516;13.564;2022-10-18T09:56:04;101879.84;;;14.80;100.00
23473;BME280;11909;52.516;13.564;2022-10-18T09:58:42;101882.56;;;14.85;100.00
23473;BME280;11909;52.516;13.564;2022-10-18T10:01:13;101878.41;;;14.87;100.00
23473;BME280;11909;52.516;13.564;2022-10-18T10:03:41;101874.31;;;14.80;100.00
23473;BME280;11909;52.516;13.564;2022-10-18T10:06:22;101876.78;;;14.81;100.00
23473;BME280;11909;52.516;13.564;2022-10-18T10:08:53;101887.59;;;14.77;100.00
23473;BME280;11909;52.516;13.564;2022-10-18T10:11:35;101890.34;;;14.77;100.00
23473;BME280;11909;52.516;13.564;2022-10-18T10:14:11;101896.97;;;14.76;100.00
23473;BME280;11909;52.516;13.564;2022-10-18T10:16:46;101891.69;;;14.80;100.00
23473;BME280;11909;52.516;13.564;2022-10-18T10:19:18;101887.59;;;14.77;100.00
23473;BME280;11909;52.516;13.564;2022-10-18T10:21:47;101882.03;;;14.72;100.00
23473;BME280;11909;52.516;13.564;2022-10-18T10:24:20;101878.19;;;14.79;100.00
23473;BME280;11909;52.516;13.564;2022-10-18T10:26:49;101884.53;;;14.74;100.00
23473;BME280;11909;52.516;13.564;2022-10-18T10:32:24;101884.25;;;14.75;100.00
23473;BME280;11909;52.516;13.564;2022-10-18T10:34:52;101886.47;;;14.73;100.00
23473;BME280;11909;52.516;13.564;2022-10-18T10:37:35;101884.00;;;14.72;100.00
23473;BME280;11909;52.516;13.564;2022-10-18T10:40:14;101879.81;;;14.74;100.00
23473;BME280;11909;52.516;13.564;2022-10-18T10:43:06;101870.44;;;14.75;100.00
23473;BME280;11909;52.516;13.564;2022-10-18T10:45:42;101866.00;;;14.74;100.00
23473;BME280;11909;52.516;13.564;2022-10-18T10:48:19;101869.06;;;14.68;100.00
23473;BME280;11909;52.516;13.564;2022-10-18T10:50:50;101863.00;;;14.66;100.00
23473;BME280;11909;52.516;13.564;2022-10-18T10:53:26;101849.72;;;14.62;100.00
23473;BME280;11909;52.516;13.564;2022-10-18T10:55:54;101853.88;;;14.65;100.00
23473;BME280;11909;52.516;13.564;2022-10-18T10:58:22;101849.72;;;14.68;100.00
23473;BME280;11909;52.516;13.564;2022-10-18T11:00:49;101853.03;;;14.70;100.00
23473;BME280;11909;52.516;13.564;2022-10-18T11:03:17;101843.38;;;14.72;100.00
23473;BME280;11909;52.516;13.564;2022-10-18T11:05:51;101836.19;;;14.76;100.00
23473;BME280;11909;52.516;13.564;2022-10-18T11:08:21;101836.19;;;14.76;100.00
23473;BME280;11909;52.516;13.564;2022-10-18T11:11:03;101814.06;;;14.82;100.00
23473;BME280;11909;52.516;13.564;2022-10-18T11:13:45;101830.34;;;14.83;100.00
23473;BME280;11909;52.516;13.564;2022-10-18T11:16:16;101830.34;;;14.83;100.00
23473;BME280;11909;52.516;13.564;2022-10-18T11:18:50;101830.34;;;14.88;100.00
23473;BME280;11909;52.516;13.564;2022-10-18T11:21:21;101833.38;;;14.87;100.00
23473;BME280;11909;52.516;13.564;2022-10-18T11:23:49;101838.09;;;14.81;100.00
23473;BME280;11909;52.516;13.564;2022-10-18T11:26:35;101828.44;;;14.79;100.00
23473;BME280;11909;52.516;13.564;2022-10-18T11:29:16;101836.69;;;14.84;100.00
23473;BME280;11909;52.516;13.564;2022-10-18T11:31:52;101832.81;;;14.85;100.00
23473;BME280;11909;52.516;13.564;2022-10-18T11:34:34;101835.06;;;14.83;100.00
23473;BME280;11909;52.516;13.564;2022-10-18T11:37:12;101832.31;;;14.77;100.00
23473;BME280;11909;52.516;13.564;2022-10-18T11:39:53;101831.22;;;14.79;100.00
23473;BME280;11909;52.516;13.564;2022-10-18T11:42:27;101823.72;;;14.79;100.00
23473;BME280;11909;52.516;13.564;2022-10-18T11:45:07;101831.75;;;14.81;100.00
23473;BME280;11909;52.516;13.564;2022-10-18T11:47:39;101825.69;;;14.79;100.00
23473;BME280;11909;52.516;13.564;2022-10-18T11:50:20;101830.63;;;14.82;100.00
23473;BME280;11909;52.516;13.564;2022-10-18T11:52:57;101827.88;;;14.82;100.00
23473;BME280;11909;52.516;13.564;2022-10-18T11:55:39;101826.47;;;14.84;100.00
23473;BME280;11909;52.516;13.564;2022-10-18T11:58:24;101822.31;;;14.87;100.00
23473;BME280;11909;52.516;13.564;2022-10-18T12:00:57;101819.81;;;14.90;100.00
23473;BME280;11909;52.516;13.564;2022-10-18T12:03:32;101821.19;;;14.88;100.00
23473;BME280;11909;52.516;13.564;2022-10-18T12:06:03;101807.97;;;14.85;100.00
23473;BME280;11909;52.516;13.564;2022-10-18T12:08:36;101794.94;;;14.85;100.00
23473;BME280;11909;52.516;13.564;2022-10-18T12:11:08;101807.34;;;14.93;100.00
23473;BME280;11909;52.516;13.564;2022-10-18T12:13:38;101804.06;;;14.91;100.00
23473;BME280;11909;52.516;13.564;2022-10-18T12:16:07;101809.88;;;14.89;100.00
23473;BME280;11909;52.516;13.564;2022-10-18T12:18:35;101813.19;;;14.86;100.00
23473;BME280;11909;52.516;13.564;2022-10-18T12:21:04;101811.22;;;14.92;100.00
23473;BME280;11909;52.516;13.564;2022-10-18T12:23:43;101798.81;;;14.89;100.00
23473;BME280;11909;52.516;13.564;2022-10-18T12:26:11;101806.84;;;14.86;100.00
23473;BME280;11909;52.516;13.564;2022-10-18T12:28:45;101811.81;;;14.89;100.00
23473;BME280;11909;52.516;13.564;2022-10-18T12:31:19;101804.09;;;14.86;100.00
23473;BME280;11909;52.516;13.564;2022-10-18T12:33:49;101802.91;;;14.97;100.00
23473;BME280;11909;52.516;13.564;2022-10-18T12:36:29;101806.50;;;14.98;100.00
23473;BME280;11909;52.516;13.564;2022-10-18T12:39:04;101798.81;;;14.89;100.00
23473;BME280;11909;52.516;13.564;2022-10-18T12:41:33;101799.91;;;14.94;100.00
23473;BME280;11909;52.516;13.564;2022-10-18T12:44:03;101790.19;;;14.96;100.00
23473;BME280;11909;52.516;13.564;2022-10-18T12:46:43;101783.84;;;14.96;100.00
23473;BME280;11909;52.516;13.564;2022-10-18T12:49:12;101785.78;;;14.95;100.00